Time,TemperatureF,DewpointF,PressureIn,WindDirection,WindDirectionDegrees,WindSpeedMPH,WindSpeedGustMPH,Humidity,HourlyPrecipIn,Conditions,Clouds,dailyrainin,SoftwareType,DateUTC
2013-03-12 00:00:00,56.6,52.1,29.99,South,183,1.0,11.0,85,0.00,,,0.00,Wunderground v.1.15,2013-03-12 04:00:00,
2013-03-12 00:01:00,56.7,52.2,29.99,South,176,3.0,13.0,85,0.00,,,0.00,Wunderground v.1.15,2013-03-12 04:01:00,
2013-03-12 00:07:00,57.0,52.5,29.99,South,178,2.0,13.0,85,0.00,,,0.00,Wunderground v.1.15,2013-03-12 04:07:00,
2013-03-12 00:08:00,57.0,52.2,29.99,South,180,8.0,13.0,84,0.00,,,0.00,Wunderground v.1.15,2013-03-12 04:08:00,
2013-03-12 00:13:00,57.1,52.3,29.99,South,182,5.0,6.0,84,0.00,,,0.00,Wunderground v.1.15,2013-03-12 04:13:00,
2013-03-12 00:19:00,56.9,51.8,29.99,South,185,6.0,9.0,83,0.00,,,0.00,Wunderground v.1.15,2013-03-12 04:19:00,
2013-03-12 00:25:00,56.9,51.8,30.00,South,187,8.0,8.0,83,0.00,,,0.00,Wunderground v.1.15,2013-03-12 04:25:00,
2013-03-12 00:31:00,57.0,52.2,29.99,South,186,6.0,11.0,84,0.00,,,0.00,Wunderground v.1.15,2013-03-12 04:31:00,
2013-03-12 00:36:00,57.0,52.2,29.99,SSE,165,5.0,11.0,84,0.00,,,0.00,Wunderground v.1.15,2013-03-12 04:36:00,
2013-03-12 00:42:00,57.2,52.7,29.99,South,179,2.0,10.0,85,0.00,,,0.00,Wunderground v.1.15,2013-03-12 04:42:00,
2013-03-12 00:48:00,57.6,53.1,29.99,South,188,11.0,12.0,85,0.00,,,0.00,Wunderground v.1.15,2013-03-12 04:48:00,
2013-03-12 00:54:00,58.0,53.5,29.98,South,182,9.0,16.0,85,0.00,,,0.00,Wunderground v.1.15,2013-03-12 04:54:00,
2013-03-12 00:59:00,58.1,53.3,29.98,South,190,13.0,16.0,84,0.00,,,0.00,Wunderground v.1.15,2013-03-12 04:59:00,
2013-03-12 01:04:00,58.0,53.2,29.98,South,176,5.0,10.0,84,0.00,,,0.00,Wunderground v.1.15,2013-03-12 05:04:00,
2013-03-12 01:10:00,57.7,52.9,29.98,South,179,5.0,7.0,84,0.00,,,0.00,Wunderground v.1.15,2013-03-12 05:10:00,
2013-03-12 01:16:00,57.4,52.6,29.98,SSW,192,6.0,9.0,84,0.00,,,0.00,Wunderground v.1.15,2013-03-12 05:16:00,
2013-03-12 01:21:00,57.5,52.7,29.98,South,188,9.0,9.0,84,0.00,,,0.00,Wunderground v.1.15,2013-03-12 05:21:00,
2013-03-12 01:27:00,57.5,53.0,29.97,South,184,6.0,10.0,85,0.00,,,0.00,Wunderground v.1.15,2013-03-12 05:27:00,
2013-03-12 01:32:00,57.6,53.1,29.97,South,169,5.0,6.0,85,0.00,,,0.00,Wunderground v.1.15,2013-03-12 05:32:00,
2013-03-12 01:38:00,57.7,53.2,29.97,South,175,6.0,13.0,85,0.00,,,0.00,Wunderground v.1.15,2013-03-12 05:38:00,
2013-03-12 01:43:00,57.7,53.2,29.97,South,179,9.0,9.0,85,0.00,,,0.00,Wunderground v.1.15,2013-03-12 05:43:00,
2013-03-12 01:49:00,57.7,53.2,29.99,South,177,12.0,12.0,85,0.00,,,0.00,Wunderground v.1.15,2013-03-12 05:49:00,
2013-03-12 01:54:00,57.7,53.5,29.99,South,182,6.0,9.0,86,0.00,,,0.00,Wunderground v.1.15,2013-03-12 05:54:00,
2013-03-12 02:00:00,57.8,53.3,29.97,South,172,3.0,7.0,85,0.00,,,0.00,Wunderground v.1.15,2013-03-12 06:00:00,
2013-03-12 02:05:00,57.7,53.2,29.97,South,169,7.0,14.0,85,0.00,,,0.00,Wunderground v.1.15,2013-03-12 06:05:00,
2013-03-12 02:10:00,57.7,53.2,29.97,SSE,167,4.0,6.0,85,0.00,,,0.00,Wunderground v.1.15,2013-03-12 06:10:00,
2013-03-12 02:15:00,58.0,53.8,29.97,South,186,6.0,17.0,86,0.00,,,0.00,Wunderground v.1.15,2013-03-12 06:15:00,
2013-03-12 02:20:00,58.2,53.7,29.97,South,175,6.0,11.0,85,0.00,,,0.00,Wunderground v.1.15,2013-03-12 06:20:00,
2013-03-12 02:25:00,58.2,53.4,29.97,South,183,5.0,11.0,84,0.00,,,0.00,Wunderground v.1.15,2013-03-12 06:25:00,
2013-03-12 02:30:00,58.1,53.3,29.97,SSE,156,5.0,9.0,84,0.00,,,0.00,Wunderground v.1.15,2013-03-12 06:30:00,
2013-03-12 02:35:00,57.7,52.9,29.97,South,171,6.0,12.0,84,0.00,,,0.00,Wunderground v.1.15,2013-03-12 06:35:00,
2013-03-12 02:40:00,57.4,52.6,29.97,SSE,165,7.0,9.0,84,0.00,,,0.00,Wunderground v.1.15,2013-03-12 06:40:00,
2013-03-12 02:45:00,57.3,52.8,29.97,South,173,5.0,10.0,85,0.00,,,0.00,Wunderground v.1.15,2013-03-12 06:45:00,
2013-03-12 02:50:00,57.3,52.8,29.97,South,173,7.0,7.0,85,0.00,,,0.00,Wunderground v.1.15,2013-03-12 06:50:00,
2013-03-12 02:55:00,57.3,52.8,29.96,South,180,4.0,11.0,85,0.00,,,0.00,Wunderground v.1.15,2013-03-12 06:55:00,
2013-03-12 03:00:00,57.3,52.8,29.96,South,180,14.0,14.0,85,0.00,,,0.00,Wunderground v.1.15,2013-03-12 07:00:00,
2013-03-12 03:05:00,57.3,52.8,29.96,South,177,3.0,14.0,85,0.00,,,0.00,Wunderground v.1.15,2013-03-12 07:05:00,
2013-03-12 03:10:00,57.5,53.0,29.96,South,184,7.0,12.0,85,0.00,,,0.00,Wunderground v.1.15,2013-03-12 07:10:00,
2013-03-12 03:15:00,57.8,53.3,29.96,South,174,5.0,12.0,85,0.00,,,0.00,Wunderground v.1.15,2013-03-12 07:15:00,
2013-03-12 03:20:00,57.8,53.0,29.96,South,177,5.0,11.0,84,0.00,,,0.00,Wunderground v.1.15,2013-03-12 07:20:00,
2013-03-12 03:25:00,57.7,52.9,29.96,South,180,6.0,14.0,84,0.00,,,0.00,Wunderground v.1.15,2013-03-12 07:25:00,
2013-03-12 03:30:00,57.6,52.5,29.96,South,178,11.0,13.0,83,0.00,,,0.00,Wunderground v.1.15,2013-03-12 07:30:00,
2013-03-12 03:35:00,57.5,52.7,29.95,South,178,5.0,13.0,84,0.00,,,0.00,Wunderground v.1.15,2013-03-12 07:35:00,
2013-03-12 03:40:00,57.6,52.8,29.95,South,184,5.0,13.0,84,0.00,,,0.00,Wunderground v.1.15,2013-03-12 07:40:00,
2013-03-12 03:45:00,57.7,52.9,29.94,South,180,6.0,13.0,84,0.00,,,0.00,Wunderground v.1.15,2013-03-12 07:45:00,
2013-03-12 03:50:00,57.8,53.0,29.94,South,175,6.0,9.0,84,0.00,,,0.00,Wunderground v.1.15,2013-03-12 07:50:00,
2013-03-12 03:55:00,57.8,53.0,29.94,SSE,164,5.0,13.0,84,0.00,,,0.00,Wunderground v.1.15,2013-03-12 07:55:00,
2013-03-12 04:00:00,57.8,53.0,29.93,South,170,9.0,11.0,84,0.00,,,0.00,Wunderground v.1.15,2013-03-12 08:00:00,
2013-03-12 04:05:00,57.7,52.9,29.93,SSE,163,10.0,11.0,84,0.00,,,0.00,Wunderground v.1.15,2013-03-12 08:05:00,
2013-03-12 04:10:00,57.6,52.8,29.93,South,169,11.0,11.0,84,0.00,,,0.00,Wunderground v.1.15,2013-03-12 08:10:00,
2013-03-12 04:15:00,57.6,53.1,29.94,South,179,6.0,13.0,85,0.00,,,0.00,Wunderground v.1.15,2013-03-12 08:15:00,
2013-03-12 04:20:00,57.6,52.8,29.93,South,169,2.0,6.0,84,0.00,,,0.00,Wunderground v.1.15,2013-03-12 08:20:00,
2013-03-12 04:25:00,57.5,53.0,29.93,South,176,5.0,12.0,85,0.00,,,0.00,Wunderground v.1.15,2013-03-12 08:25:00,
2013-03-12 04:31:00,57.6,53.1,29.93,South,186,5.0,9.0,85,0.00,,,0.00,Wunderground v.1.15,2013-03-12 08:31:00,
2013-03-12 04:36:00,57.7,53.2,29.93,South,185,2.0,14.0,85,0.00,,,0.00,Wunderground v.1.15,2013-03-12 08:36:00,
2013-03-12 04:41:00,57.8,53.3,29.93,SSE,165,6.0,7.0,85,0.00,,,0.00,Wunderground v.1.15,2013-03-12 08:41:00,
2013-03-12 04:46:00,57.7,53.2,29.93,South,169,7.0,14.0,85,0.00,,,0.00,Wunderground v.1.15,2013-03-12 08:46:00,
2013-03-12 04:51:00,57.9,53.4,29.93,South,171,6.0,10.0,85,0.00,,,0.00,Wunderground v.1.15,2013-03-12 08:51:00,
2013-03-12 04:56:00,58.1,53.6,29.93,South,175,11.0,13.0,85,0.00,,,0.00,Wunderground v.1.15,2013-03-12 08:56:00,
2013-03-12 05:01:00,58.2,53.4,29.93,South,182,7.0,13.0,84,0.00,,,0.00,Wunderground v.1.15,2013-03-12 09:01:00,
2013-03-12 05:06:00,58.1,53.3,29.93,South,186,7.0,14.0,84,0.00,,,0.00,Wunderground v.1.15,2013-03-12 09:06:00,
2013-03-12 05:11:00,58.1,53.6,29.93,South,181,10.0,13.0,85,0.00,,,0.00,Wunderground v.1.15,2013-03-12 09:11:00,
2013-03-12 05:16:00,58.1,53.6,29.93,South,182,4.0,14.0,85,0.00,,,0.00,Wunderground v.1.15,2013-03-12 09:16:00,
2013-03-12 05:21:00,58.4,53.9,29.92,South,178,10.0,14.0,85,0.00,,,0.00,Wunderground v.1.15,2013-03-12 09:21:00,
2013-03-12 05:26:00,58.4,53.9,29.93,South,190,10.0,14.0,85,0.00,,,0.00,Wunderground v.1.15,2013-03-12 09:26:00,
2013-03-12 05:31:00,58.6,54.4,29.92,SSE,156,5.0,17.0,86,0.00,,,0.00,Wunderground v.1.15,2013-03-12 09:31:00,
2013-03-12 05:36:00,58.5,54.3,29.92,South,175,6.0,17.0,86,0.00,,,0.00,Wunderground v.1.15,2013-03-12 09:36:00,
2013-03-12 05:41:00,58.3,54.4,29.92,SSE,159,5.0,11.0,87,0.00,,,0.00,Wunderground v.1.15,2013-03-12 09:41:00,
2013-03-12 05:46:00,58.3,54.4,29.92,South,178,5.0,14.0,87,0.00,,,0.00,Wunderground v.1.15,2013-03-12 09:46:00,
2013-03-12 05:51:00,58.2,54.3,29.92,South,176,4.0,10.0,87,0.00,,,0.00,Wunderground v.1.15,2013-03-12 09:51:00,
2013-03-12 05:56:00,58.0,54.2,29.92,South,178,7.0,14.0,87,0.00,,,0.00,Wunderground v.1.15,2013-03-12 09:56:00,
2013-03-12 06:01:00,57.9,54.1,29.92,South,173,5.0,12.0,87,0.00,,,0.00,Wunderground v.1.15,2013-03-12 10:01:00,
2013-03-12 06:06:00,57.9,54.1,29.92,SSE,161,2.0,13.0,87,0.00,,,0.00,Wunderground v.1.15,2013-03-12 10:06:00,
2013-03-12 06:11:00,57.7,53.9,29.92,SSE,168,10.0,10.0,87,0.00,,,0.00,Wunderground v.1.15,2013-03-12 10:11:00,
2013-03-12 06:17:00,57.9,54.1,29.92,South,171,11.0,13.0,87,0.00,,,0.00,Wunderground v.1.15,2013-03-12 10:17:00,
2013-03-12 06:22:00,58.1,54.2,29.92,South,180,5.0,10.0,87,0.00,,,0.00,Wunderground v.1.15,2013-03-12 10:22:00,
2013-03-12 06:27:00,58.4,54.5,29.92,South,180,6.0,14.0,87,0.00,,,0.00,Wunderground v.1.15,2013-03-12 10:27:00,
2013-03-12 06:31:00,58.5,54.6,29.92,South,169,6.0,9.0,87,0.00,,,0.00,Wunderground v.1.15,2013-03-12 10:31:00,
2013-03-12 06:36:00,58.4,54.5,29.91,SSE,168,7.0,11.0,87,0.00,,,0.00,Wunderground v.1.15,2013-03-12 10:36:00,
2013-03-12 06:42:00,58.4,54.5,29.91,South,173,5.0,11.0,87,0.00,,,0.00,Wunderground v.1.15,2013-03-12 10:42:00,
2013-03-12 06:47:00,58.3,54.4,29.91,South,176,4.0,14.0,87,0.00,,,0.00,Wunderground v.1.15,2013-03-12 10:47:00,
2013-03-12 06:52:00,58.0,54.2,29.91,South,173,0.0,12.0,87,0.00,,,0.00,Wunderground v.1.15,2013-03-12 10:52:00,
2013-03-12 06:57:00,57.9,54.1,29.91,South,172,7.0,13.0,87,0.00,,,0.00,Wunderground v.1.15,2013-03-12 10:57:00,
2013-03-12 07:02:00,58.1,54.6,29.91,South,174,11.0,13.0,88,0.00,,,0.00,Wunderground v.1.15,2013-03-12 11:02:00,
2013-03-12 07:07:00,58.4,54.9,29.91,South,185,8.0,13.0,88,0.00,,,0.00,Wunderground v.1.15,2013-03-12 11:07:00,
2013-03-12 07:12:00,58.6,55.1,29.91,South,171,6.0,15.0,88,0.00,,,0.00,Wunderground v.1.15,2013-03-12 11:12:00,
2013-03-12 07:17:00,58.7,55.2,29.91,South,172,4.0,18.0,88,0.00,,,0.00,Wunderground v.1.15,2013-03-12 11:17:00,
2013-03-12 07:22:00,58.7,55.2,29.91,South,190,7.0,16.0,88,0.00,,,0.00,Wunderground v.1.15,2013-03-12 11:22:00,
2013-03-12 07:27:00,58.9,55.4,29.91,South,186,15.0,17.0,88,0.00,,,0.00,Wunderground v.1.15,2013-03-12 11:27:00,
2013-03-12 07:32:00,59.0,55.4,29.91,South,175,4.0,13.0,88,0.00,,,0.00,Wunderground v.1.15,2013-03-12 11:32:00,
2013-03-12 07:37:00,59.0,55.4,29.91,South,170,8.0,15.0,88,0.00,,,0.00,Wunderground v.1.15,2013-03-12 11:37:00,
2013-03-12 07:42:00,59.0,55.4,29.91,South,169,6.0,12.0,88,0.00,,,0.00,Wunderground v.1.15,2013-03-12 11:42:00,
2013-03-12 07:47:00,59.0,55.4,29.91,SSE,157,11.0,14.0,88,0.00,,,0.00,Wunderground v.1.15,2013-03-12 11:47:00,
2013-03-12 07:52:00,58.8,55.3,29.91,South,176,9.0,14.0,88,0.00,,,0.00,Wunderground v.1.15,2013-03-12 11:52:00,
2013-03-12 07:57:00,58.8,55.6,29.92,South,188,7.0,18.0,89,0.00,,,0.01,Wunderground v.1.15,2013-03-12 11:57:00,
2013-03-12 08:02:00,58.8,55.9,29.92,SSW,195,11.0,17.0,90,0.13,,,0.02,Wunderground v.1.15,2013-03-12 12:02:00,
2013-03-12 08:07:00,59.2,56.9,29.91,South,186,6.0,17.0,92,0.10,,,0.02,Wunderground v.1.15,2013-03-12 12:07:00,
2013-03-12 08:12:00,58.9,56.6,29.92,SSW,192,7.0,15.0,92,0.08,,,0.03,Wunderground v.1.15,2013-03-12 12:12:00,
2013-03-12 08:17:00,58.8,56.5,29.91,South,188,5.0,15.0,92,0.07,,,0.03,Wunderground v.1.15,2013-03-12 12:17:00,
2013-03-12 08:22:00,58.7,56.4,29.92,South,191,2.0,7.0,92,0.04,,,0.03,Wunderground v.1.15,2013-03-12 12:22:00,
2013-03-12 08:28:00,58.6,56.3,29.92,South,191,0.0,7.0,92,0.00,,,0.04,Wunderground v.1.15,2013-03-12 12:28:00,
2013-03-12 08:33:00,58.4,56.4,29.92,South,189,2.0,7.0,93,0.00,,,0.04,Wunderground v.1.15,2013-03-12 12:33:00,
2013-03-12 08:38:00,58.2,55.9,29.92,South,186,4.0,12.0,92,0.00,,,0.04,Wunderground v.1.15,2013-03-12 12:38:00,
2013-03-12 08:43:00,58.0,55.7,29.92,South,180,5.0,9.0,92,0.00,,,0.04,Wunderground v.1.15,2013-03-12 12:43:00,
2013-03-12 08:48:00,57.9,55.9,29.92,South,183,7.0,9.0,93,0.00,,,0.05,Wunderground v.1.15,2013-03-12 12:48:00,
2013-03-12 08:53:00,57.8,55.8,29.91,South,188,4.0,6.0,93,0.16,,,0.07,Wunderground v.1.15,2013-03-12 12:53:00,
2013-03-12 08:58:00,57.8,55.8,29.91,South,188,0.0,6.0,93,0.10,,,0.07,Wunderground v.1.15,2013-03-12 12:58:00,
2013-03-12 09:03:00,57.7,55.7,29.91,South,190,1.0,6.0,93,0.05,,,0.07,Wunderground v.1.15,2013-03-12 13:03:00,
2013-03-12 09:08:00,57.5,55.5,29.91,South,190,0.0,6.0,93,0.04,,,0.07,Wunderground v.1.15,2013-03-12 13:08:00,
2013-03-12 09:13:00,56.4,54.1,29.91,South,190,3.0,3.0,92,0.00,,,0.07,Wunderground v.1.15,2013-03-12 13:13:00,
2013-03-12 09:18:00,55.6,53.6,29.92,WSW,247,6.0,13.0,93,0.00,,,0.08,Wunderground v.1.15,2013-03-12 13:18:00,
2013-03-12 09:23:00,56.1,54.4,29.91,SSW,207,4.0,12.0,94,0.10,,,0.09,Wunderground v.1.15,2013-03-12 13:23:00,
2013-03-12 09:28:00,58.3,57.2,29.92,SSW,211,7.0,19.0,96,0.20,,,0.10,Wunderground v.1.15,2013-03-12 13:28:00,
2013-03-12 09:33:00,59.6,58.2,29.91,South,171,11.0,19.0,95,0.08,,,0.10,Wunderground v.1.15,2013-03-12 13:33:00,
2013-03-12 09:38:00,59.9,58.5,29.91,SW,217,7.0,19.0,95,0.05,,,0.10,Wunderground v.1.15,2013-03-12 13:38:00,
2013-03-12 09:43:00,59.8,58.1,29.91,South,186,7.0,14.0,94,0.00,,,0.10,Wunderground v.1.15,2013-03-12 13:43:00,
2013-03-12 09:48:00,59.3,57.6,29.91,South,183,8.0,14.0,94,0.00,,,0.10,Wunderground v.1.15,2013-03-12 13:48:00,
2013-03-12 09:53:00,58.7,56.7,29.91,South,189,0.0,10.0,93,0.00,,,0.10,Wunderground v.1.15,2013-03-12 13:53:00,
2013-03-12 09:58:00,58.8,57.1,29.91,South,186,11.0,14.0,94,0.00,,,0.10,Wunderground v.1.15,2013-03-12 13:58:00,
2013-03-12 10:03:00,58.8,57.1,29.90,South,174,7.0,14.0,94,0.00,,,0.10,Wunderground v.1.15,2013-03-12 14:03:00,
2013-03-12 10:08:00,58.6,56.9,29.90,South,179,11.0,15.0,94,0.00,,,0.10,Wunderground v.1.15,2013-03-12 14:08:00,
2013-03-12 10:13:00,58.7,57.0,29.90,South,184,12.0,14.0,94,0.00,,,0.10,Wunderground v.1.15,2013-03-12 14:13:00,
2013-03-12 10:18:00,58.9,57.2,29.89,South,182,15.0,17.0,94,0.00,,,0.11,Wunderground v.1.15,2013-03-12 14:18:00,
2013-03-12 10:23:00,59.0,57.3,29.89,South,181,6.0,16.0,94,0.00,,,0.11,Wunderground v.1.15,2013-03-12 14:23:00,
2013-03-12 10:28:00,59.1,57.4,29.89,South,174,7.0,16.0,94,0.05,,,0.11,Wunderground v.1.15,2013-03-12 14:28:00,
2013-03-12 10:33:00,59.3,57.6,29.89,South,170,11.0,14.0,94,0.05,,,0.12,Wunderground v.1.15,2013-03-12 14:33:00,
2013-03-12 10:38:00,59.0,57.3,29.89,South,178,11.0,14.0,94,0.05,,,0.12,Wunderground v.1.15,2013-03-12 14:38:00,
2013-03-12 10:43:00,59.1,57.4,29.89,South,180,13.0,20.0,94,0.04,,,0.12,Wunderground v.1.15,2013-03-12 14:43:00,
2013-03-12 10:48:00,59.1,57.4,29.89,South,184,5.0,20.0,94,0.00,,,0.12,Wunderground v.1.15,2013-03-12 14:48:00,
2013-03-12 10:53:00,59.1,57.4,29.89,South,190,11.0,15.0,94,0.00,,,0.12,Wunderground v.1.15,2013-03-12 14:53:00,
2013-03-12 10:58:00,59.1,57.4,29.89,South,177,5.0,16.0,94,0.00,,,0.12,Wunderground v.1.15,2013-03-12 14:58:00,
2013-03-12 11:03:00,59.2,57.5,29.89,South,169,14.0,18.0,94,0.00,,,0.12,Wunderground v.1.15,2013-03-12 15:03:00,
2013-03-12 11:08:00,59.3,57.6,29.89,South,190,5.0,18.0,94,0.00,,,0.13,Wunderground v.1.15,2013-03-12 15:08:00,
2013-03-12 11:13:00,59.4,57.7,29.88,South,182,4.0,16.0,94,0.00,,,0.13,Wunderground v.1.15,2013-03-12 15:13:00,
2013-03-12 11:18:00,59.3,57.6,29.88,SSE,159,5.0,16.0,94,0.00,,,0.13,Wunderground v.1.15,2013-03-12 15:18:00,
2013-03-12 11:23:00,59.3,57.6,29.88,South,186,11.0,14.0,94,0.00,,,0.14,Wunderground v.1.15,2013-03-12 15:23:00,
2013-03-12 11:28:00,59.1,57.4,29.88,South,178,13.0,14.0,94,0.19,,,0.15,Wunderground v.1.15,2013-03-12 15:28:00,
2013-03-12 11:34:00,59.1,57.4,29.88,South,181,8.0,16.0,94,0.26,,,0.18,Wunderground v.1.15,2013-03-12 15:34:00,
2013-03-12 11:39:00,59.4,57.7,29.87,South,188,9.0,16.0,94,0.34,,,0.21,Wunderground v.1.15,2013-03-12 15:39:00,
2013-03-12 11:44:00,59.4,57.7,29.87,SSW,209,10.0,15.0,94,0.26,,,0.23,Wunderground v.1.15,2013-03-12 15:44:00,
2013-03-12 11:49:00,59.2,57.5,29.88,South,187,7.0,17.0,94,0.40,,,0.25,Wunderground v.1.15,2013-03-12 15:49:00,
2013-03-12 11:54:00,59.3,57.6,29.88,SSW,196,10.0,16.0,94,0.09,,,0.25,Wunderground v.1.15,2013-03-12 15:54:00,
2013-03-12 11:59:00,60.2,58.8,29.88,SSW,192,9.0,18.0,95,0.07,,,0.26,Wunderground v.1.15,2013-03-12 15:59:00,
2013-03-12 12:04:00,60.9,59.5,29.88,SSW,200,14.0,20.0,95,0.07,,,0.26,Wunderground v.1.15,2013-03-12 16:04:00,
2013-03-12 12:09:00,60.9,59.5,29.87,South,182,16.0,21.0,95,0.05,,,0.26,Wunderground v.1.15,2013-03-12 16:09:00,
2013-03-12 12:14:00,60.3,58.9,29.87,SSW,204,11.0,22.0,95,0.04,,,0.27,Wunderground v.1.15,2013-03-12 16:14:00,
2013-03-12 12:19:00,59.8,58.4,29.86,South,183,9.0,22.0,95,0.11,,,0.28,Wunderground v.1.15,2013-03-12 16:19:00,
2013-03-12 12:24:00,59.7,58.6,29.86,South,175,6.0,20.0,96,0.13,,,0.29,Wunderground v.1.15,2013-03-12 16:24:00,
2013-03-12 12:29:00,59.7,58.6,29.86,South,184,13.0,20.0,96,0.09,,,0.30,Wunderground v.1.15,2013-03-12 16:29:00,
2013-03-12 12:34:00,60.2,59.1,29.86,South,169,13.0,21.0,96,0.11,,,0.31,Wunderground v.1.15,2013-03-12 16:34:00,
2013-03-12 12:39:00,60.2,59.1,29.86,South,171,12.0,21.0,96,0.11,,,0.31,Wunderground v.1.15,2013-03-12 16:39:00,
2013-03-12 12:44:00,60.0,58.9,29.86,South,184,4.0,17.0,96,0.12,,,0.32,Wunderground v.1.15,2013-03-12 16:44:00,
2013-03-12 12:49:00,60.0,58.9,29.87,South,186,12.0,19.0,96,0.65,,,0.37,Wunderground v.1.15,2013-03-12 16:49:00,
2013-03-12 12:54:00,60.3,59.2,29.87,South,171,15.0,19.0,96,0.36,,,0.41,Wunderground v.1.15,2013-03-12 16:54:00,
2013-03-12 12:59:00,60.1,59.0,29.87,SSW,207,12.0,19.0,96,0.28,,,0.43,Wunderground v.1.15,2013-03-12 16:59:00,
2013-03-12 13:04:00,59.8,58.4,29.88,SW,214,14.0,17.0,95,0.22,,,0.45,Wunderground v.1.15,2013-03-12 17:04:00,
2013-03-12 13:09:00,60.0,58.9,29.88,SW,217,5.0,21.0,96,0.67,,,0.01,Wunderground v.1.15,2013-03-12 17:09:00,
2013-03-12 13:14:00,60.9,60.0,29.88,SW,215,15.0,20.0,97,4.80,,,0.19,Wunderground v.1.15,2013-03-12 17:14:00,
2013-03-12 13:19:00,61.5,60.6,29.86,SSW,208,13.0,20.0,97,1.12,,,0.42,Wunderground v.1.15,2013-03-12 17:19:00,
2013-03-12 13:24:00,61.1,60.0,29.87,SW,225,3.0,15.0,96,0.26,,,0.44,Wunderground v.1.15,2013-03-12 17:24:00,
2013-03-12 13:29:00,60.9,59.8,29.87,SSW,204,11.0,16.0,96,0.08,,,0.44,Wunderground v.1.15,2013-03-12 17:29:00,
2013-03-12 13:34:00,60.5,59.4,29.87,SSW,211,6.0,14.0,96,0.05,,,0.44,Wunderground v.1.15,2013-03-12 17:34:00,
2013-03-12 13:39:00,59.7,58.3,29.86,SSW,205,11.0,15.0,95,0.14,,,0.46,Wunderground v.1.15,2013-03-12 17:39:00,
2013-03-12 13:44:00,59.0,57.9,29.86,SSW,196,7.0,13.0,96,0.17,,,0.47,Wunderground v.1.15,2013-03-12 17:44:00,
2013-03-12 13:49:00,59.1,58.0,29.86,SSW,200,6.0,13.0,96,0.08,,,0.47,Wunderground v.1.15,2013-03-12 17:49:00,
2013-03-12 13:54:00,59.2,58.1,29.86,SW,215,3.0,12.0,96,0.07,,,0.48,Wunderground v.1.15,2013-03-12 17:54:00,
2013-03-12 13:59:00,59.2,58.1,29.85,SSW,205,2.0,12.0,96,0.09,,,0.49,Wunderground v.1.15,2013-03-12 17:59:00,
2013-03-12 14:04:00,59.1,58.0,29.85,SSW,198,4.0,13.0,96,0.09,,,0.50,Wunderground v.1.15,2013-03-12 18:04:00,
2013-03-12 14:09:00,59.2,58.1,29.85,SSW,200,2.0,13.0,96,0.09,,,0.50,Wunderground v.1.15,2013-03-12 18:09:00,
2013-03-12 14:14:00,59.4,58.5,29.85,SW,215,6.0,9.0,97,0.07,,,0.51,Wunderground v.1.15,2013-03-12 18:14:00,
2013-03-12 14:19:00,59.3,58.4,29.84,SSW,200,4.0,12.0,97,0.07,,,0.51,Wunderground v.1.15,2013-03-12 18:19:00,
2013-03-12 14:24:00,59.5,58.6,29.84,SSW,208,5.0,9.0,97,0.05,,,0.51,Wunderground v.1.15,2013-03-12 18:24:00,
2013-03-12 14:29:00,59.5,58.6,29.83,SSW,209,3.0,11.0,97,0.04,,,0.52,Wunderground v.1.15,2013-03-12 18:29:00,
2013-03-12 14:34:00,59.4,58.5,29.83,SW,224,6.0,8.0,97,0.14,,,0.53,Wunderground v.1.15,2013-03-12 18:34:00,
2013-03-12 14:39:00,59.4,58.5,29.82,SSW,198,11.0,12.0,97,0.12,,,0.54,Wunderground v.1.15,2013-03-12 18:39:00,
2013-03-12 14:44:00,59.3,58.4,29.82,SW,220,9.0,14.0,97,0.07,,,0.54,Wunderground v.1.15,2013-03-12 18:44:00,
2013-03-12 14:49:00,58.6,57.5,29.82,SW,224,6.0,14.0,96,0.05,,,0.55,Wunderground v.1.15,2013-03-12 18:49:00,
2013-03-12 14:54:00,58.1,57.0,29.82,SW,220,9.0,13.0,96,0.05,,,0.55,Wunderground v.1.15,2013-03-12 18:54:00,
2013-03-12 14:59:00,58.0,57.2,29.81,SW,215,4.0,13.0,97,0.05,,,0.55,Wunderground v.1.15,2013-03-12 18:59:00,
2013-03-12 15:04:00,58.1,57.3,29.81,SW,219,5.0,12.0,97,0.04,,,0.55,Wunderground v.1.15,2013-03-12 19:04:00,
2013-03-12 15:09:00,57.9,57.1,29.81,SW,221,4.0,13.0,97,0.00,,,0.55,Wunderground v.1.15,2013-03-12 19:09:00,
2013-03-12 15:14:00,57.7,56.9,29.81,SW,215,4.0,13.0,97,0.00,,,0.55,Wunderground v.1.15,2013-03-12 19:14:00,
2013-03-12 15:19:00,57.7,56.9,29.81,SSW,209,6.0,13.0,97,0.00,,,0.55,Wunderground v.1.15,2013-03-12 19:19:00,
2013-03-12 15:24:00,57.8,57.0,29.80,SW,217,2.0,10.0,97,0.00,,,0.55,Wunderground v.1.15,2013-03-12 19:24:00,
2013-03-12 15:29:00,58.0,57.2,29.80,SSW,209,7.0,10.0,97,0.00,,,0.55,Wunderground v.1.15,2013-03-12 19:29:00,
2013-03-12 15:34:00,58.2,57.4,29.79,SSW,196,5.0,9.0,97,0.00,,,0.55,Wunderground v.1.15,2013-03-12 19:34:00,
2013-03-12 15:39:00,58.1,57.3,29.79,SW,214,6.0,10.0,97,0.00,,,0.55,Wunderground v.1.15,2013-03-12 19:39:00,
2013-03-12 15:44:00,57.8,57.0,29.79,SW,215,3.0,8.0,97,0.00,,,0.55,Wunderground v.1.15,2013-03-12 19:44:00,
2013-03-12 15:49:00,57.7,56.9,29.80,SW,215,2.0,11.0,97,0.00,,,0.55,Wunderground v.1.15,2013-03-12 19:49:00,
2013-03-12 15:54:00,57.5,56.7,29.80,SSW,207,6.0,8.0,97,0.00,,,0.55,Wunderground v.1.15,2013-03-12 19:54:00,
2013-03-12 15:59:00,57.6,56.8,29.79,SSW,199,5.0,10.0,97,0.00,,,0.55,Wunderground v.1.15,2013-03-12 19:59:00,
2013-03-12 16:04:00,58.0,57.2,29.79,SSW,195,4.0,11.0,97,0.00,,,0.55,Wunderground v.1.15,2013-03-12 20:04:00,
2013-03-12 16:09:00,58.1,57.3,29.79,SSW,200,5.0,13.0,97,0.00,,,0.55,Wunderground v.1.15,2013-03-12 20:09:00,
2013-03-12 16:14:00,58.3,57.5,29.79,SSW,209,12.0,12.0,97,0.00,,,0.55,Wunderground v.1.15,2013-03-12 20:14:00,
2013-03-12 16:19:00,58.5,57.7,29.79,SSW,210,11.0,12.0,97,0.00,,,0.55,Wunderground v.1.15,2013-03-12 20:19:00,
2013-03-12 16:24:00,58.5,57.7,29.78,SSW,194,2.0,11.0,97,0.00,,,0.55,Wunderground v.1.15,2013-03-12 20:24:00,
2013-03-12 16:29:00,58.2,57.4,29.78,South,191,6.0,14.0,97,0.00,,,0.55,Wunderground v.1.15,2013-03-12 20:29:00,
2013-03-12 16:34:00,58.1,57.3,29.78,South,174,7.0,13.0,97,0.00,,,0.55,Wunderground v.1.15,2013-03-12 20:34:00,
2013-03-12 16:39:00,58.3,57.5,29.78,SSE,167,7.0,13.0,97,0.00,,,0.55,Wunderground v.1.15,2013-03-12 20:39:00,
2013-03-12 16:44:00,58.7,57.9,29.78,SSW,192,6.0,14.0,97,0.00,,,0.55,Wunderground v.1.15,2013-03-12 20:44:00,
2013-03-12 16:49:00,59.1,58.5,29.77,SSW,205,5.0,14.0,98,0.00,,,0.55,Wunderground v.1.15,2013-03-12 20:49:00,
2013-03-12 16:54:00,59.0,58.2,29.77,South,186,4.0,11.0,97,0.00,,,0.55,Wunderground v.1.15,2013-03-12 20:54:00,
2013-03-12 16:59:00,58.9,58.1,29.77,SSW,207,11.0,11.0,97,0.00,,,0.55,Wunderground v.1.15,2013-03-12 20:59:00,
2013-03-12 17:04:00,59.0,58.2,29.77,SSW,200,4.0,12.0,97,0.00,,,0.55,Wunderground v.1.15,2013-03-12 21:04:00,
2013-03-12 17:09:00,59.1,58.5,29.77,SW,217,3.0,12.0,98,0.00,,,0.55,Wunderground v.1.15,2013-03-12 21:09:00,
2013-03-12 17:14:00,59.3,58.4,29.77,SW,217,4.0,10.0,97,0.00,,,0.55,Wunderground v.1.15,2013-03-12 21:14:00,
2013-03-12 17:19:00,59.5,58.6,29.77,SSW,202,8.0,10.0,97,0.00,,,0.55,Wunderground v.1.15,2013-03-12 21:19:00,
2013-03-12 17:24:00,59.5,58.9,29.76,SSW,205,9.0,12.0,98,0.00,,,0.55,Wunderground v.1.15,2013-03-12 21:24:00,
2013-03-12 17:29:00,59.4,58.5,29.76,South,188,5.0,12.0,97,0.00,,,0.55,Wunderground v.1.15,2013-03-12 21:29:00,
2013-03-12 17:34:00,59.4,58.5,29.76,SSW,194,7.0,10.0,97,0.00,,,0.55,Wunderground v.1.15,2013-03-12 21:34:00,
2013-03-12 17:39:00,59.4,58.5,29.76,SSW,192,2.0,14.0,97,0.00,,,0.55,Wunderground v.1.15,2013-03-12 21:39:00,
2013-03-12 17:44:00,59.1,58.2,29.76,South,183,1.0,16.0,97,0.00,,,0.55,Wunderground v.1.15,2013-03-12 21:44:00,
2013-03-12 17:49:00,59.2,58.3,29.76,South,188,6.0,16.0,97,0.00,,,0.55,Wunderground v.1.15,2013-03-12 21:49:00,
2013-03-12 17:54:00,59.4,58.5,29.76,SSW,192,5.0,10.0,97,0.00,,,0.55,Wunderground v.1.15,2013-03-12 21:54:00,
2013-03-12 17:59:00,59.5,58.9,29.75,SSW,195,4.0,13.0,98,0.00,,,0.55,Wunderground v.1.15,2013-03-12 21:59:00,
2013-03-12 18:04:00,59.5,58.6,29.75,SSW,201,4.0,12.0,97,0.00,,,0.55,Wunderground v.1.15,2013-03-12 22:04:00,
2013-03-12 18:09:00,59.4,58.5,29.76,SW,216,12.0,14.0,97,0.00,,,0.55,Wunderground v.1.15,2013-03-12 22:09:00,
2013-03-12 18:14:00,59.2,58.3,29.76,SSW,203,2.0,12.0,97,0.00,,,0.55,Wunderground v.1.15,2013-03-12 22:14:00,
2013-03-12 18:19:00,59.0,58.2,29.76,SSW,210,4.0,12.0,97,0.00,,,0.55,Wunderground v.1.15,2013-03-12 22:19:00,
2013-03-12 18:24:00,58.9,58.1,29.76,SSW,200,4.0,16.0,97,0.00,,,0.55,Wunderground v.1.15,2013-03-12 22:24:00,
2013-03-12 18:29:00,58.7,57.9,29.76,SSW,207,3.0,16.0,97,0.00,,,0.55,Wunderground v.1.15,2013-03-12 22:29:00,
2013-03-12 18:34:00,58.5,57.7,29.76,SSW,211,6.0,13.0,97,0.00,,,0.55,Wunderground v.1.15,2013-03-12 22:34:00,
2013-03-12 18:39:00,58.2,57.4,29.76,SSW,205,1.0,13.0,97,0.00,,,0.55,Wunderground v.1.15,2013-03-12 22:39:00,
2013-03-12 18:44:00,58.0,57.2,29.76,SSW,201,0.0,11.0,97,0.00,,,0.55,Wunderground v.1.15,2013-03-12 22:44:00,
2013-03-12 18:49:00,57.9,57.1,29.76,SSW,209,4.0,15.0,97,0.00,,,0.55,Wunderground v.1.15,2013-03-12 22:49:00,
2013-03-12 18:54:00,57.8,57.0,29.77,SSW,211,5.0,10.0,97,0.00,,,0.55,Wunderground v.1.15,2013-03-12 22:54:00,
2013-03-12 18:59:00,57.6,56.8,29.77,SSW,208,4.0,13.0,97,0.00,,,0.55,Wunderground v.1.15,2013-03-12 22:59:00,
2013-03-12 19:04:00,57.5,56.7,29.77,SSW,200,3.0,13.0,97,0.00,,,0.55,Wunderground v.1.15,2013-03-12 23:04:00,
2013-03-12 19:09:00,57.4,56.6,29.78,SSW,207,2.0,13.0,97,0.00,,,0.55,Wunderground v.1.15,2013-03-12 23:09:00,
2013-03-12 19:14:00,57.3,56.5,29.78,SSW,198,6.0,12.0,97,0.00,,,0.55,Wunderground v.1.15,2013-03-12 23:14:00,
2013-03-12 19:19:00,57.2,56.4,29.77,SSW,205,11.0,13.0,97,0.00,,,0.55,Wunderground v.1.15,2013-03-12 23:19:00,
2013-03-12 19:24:00,57.0,56.2,29.78,SSW,213,5.0,13.0,97,0.00,,,0.55,Wunderground v.1.15,2013-03-12 23:24:00,
2013-03-12 19:29:00,56.8,56.0,29.77,SW,218,7.0,13.0,97,0.00,,,0.55,Wunderground v.1.15,2013-03-12 23:29:00,
2013-03-12 19:34:00,56.7,55.9,29.77,SSW,205,4.0,13.0,97,0.00,,,0.55,Wunderground v.1.15,2013-03-12 23:34:00,
2013-03-12 19:39:00,56.5,55.7,29.78,SW,217,5.0,13.0,97,0.00,,,0.55,Wunderground v.1.15,2013-03-12 23:39:00,
2013-03-12 19:44:00,56.3,55.5,29.77,SW,223,2.0,11.0,97,0.00,,,0.55,Wunderground v.1.15,2013-03-12 23:44:00,
2013-03-12 19:50:00,56.1,55.3,29.77,SW,223,2.0,11.0,97,0.00,,,0.55,Wunderground v.1.15,2013-03-12 23:50:00,
2013-03-12 19:55:00,55.8,55.0,29.77,SSW,208,0.0,9.0,97,0.00,,,0.55,Wunderground v.1.15,2013-03-12 23:55:00,
2013-03-12 20:00:00,55.6,54.8,29.77,SW,223,6.0,6.0,97,0.00,,,0.55,Wunderground v.1.15,2013-03-13 00:00:00,
2013-03-12 20:05:00,55.4,54.6,29.77,SW,222,9.0,10.0,97,0.00,,,0.55,Wunderground v.1.15,2013-03-13 00:05:00,
2013-03-12 20:10:00,55.1,54.0,29.78,SW,228,6.0,6.0,96,0.00,,,0.55,Wunderground v.1.15,2013-03-13 00:10:00,
2013-03-12 20:15:00,54.9,54.1,29.78,SW,222,6.0,13.0,97,0.00,,,0.55,Wunderground v.1.15,2013-03-13 00:15:00,
2013-03-12 20:20:00,54.9,54.1,29.78,SW,233,10.0,10.0,97,0.00,,,0.55,Wunderground v.1.15,2013-03-13 00:20:00,
2013-03-12 20:25:00,54.9,54.1,29.78,SW,225,6.0,13.0,97,0.00,,,0.55,Wunderground v.1.15,2013-03-13 00:25:00,
2013-03-12 20:30:00,54.9,54.1,29.78,SW,223,5.0,6.0,97,0.00,,,0.55,Wunderground v.1.15,2013-03-13 00:30:00,
2013-03-12 20:35:00,54.9,54.1,29.78,SSW,212,6.0,12.0,97,0.00,,,0.55,Wunderground v.1.15,2013-03-13 00:35:00,
2013-03-12 20:40:00,55.1,54.3,29.78,SW,221,5.0,6.0,97,0.00,,,0.55,Wunderground v.1.15,2013-03-13 00:40:00,
2013-03-12 20:45:00,55.2,54.4,29.78,SSW,210,4.0,11.0,97,0.00,,,0.55,Wunderground v.1.15,2013-03-13 00:45:00,
2013-03-12 20:50:00,55.1,54.3,29.78,SW,227,5.0,5.0,97,0.00,,,0.55,Wunderground v.1.15,2013-03-13 00:50:00,
2013-03-12 20:55:00,55.0,54.2,29.78,SW,233,6.0,11.0,97,0.00,,,0.55,Wunderground v.1.15,2013-03-13 00:55:00,
2013-03-12 21:00:00,55.1,54.3,29.78,SW,230,5.0,7.0,97,0.00,,,0.55,Wunderground v.1.15,2013-03-13 01:00:00,
2013-03-12 21:05:00,55.1,54.3,29.78,SW,227,4.0,7.0,97,0.00,,,0.55,Wunderground v.1.15,2013-03-13 01:05:00,
2013-03-12 21:10:00,55.0,54.2,29.79,SW,234,4.0,7.0,97,0.00,,,0.55,Wunderground v.1.15,2013-03-13 01:10:00,
2013-03-12 21:15:00,54.9,54.1,29.79,SW,228,4.0,10.0,97,0.00,,,0.55,Wunderground v.1.15,2013-03-13 01:15:00,
2013-03-12 21:20:00,54.9,54.1,29.79,SW,228,7.0,7.0,97,0.00,,,0.55,Wunderground v.1.15,2013-03-13 01:20:00,
2013-03-12 21:25:00,54.9,54.1,29.79,SW,229,7.0,8.0,97,0.00,,,0.55,Wunderground v.1.15,2013-03-13 01:25:00,
2013-03-12 21:30:00,54.8,54.0,29.79,SW,218,7.0,7.0,97,0.00,,,0.55,Wunderground v.1.15,2013-03-13 01:30:00,
2013-03-12 21:35:00,54.8,54.0,29.79,SW,215,3.0,10.0,97,0.00,,,0.55,Wunderground v.1.15,2013-03-13 01:35:00,
2013-03-12 21:40:00,54.7,53.9,29.79,SW,216,5.0,6.0,97,0.00,,,0.55,Wunderground v.1.15,2013-03-13 01:40:00,
2013-03-12 21:45:00,54.6,53.8,29.79,SW,225,5.0,9.0,97,0.00,,,0.55,Wunderground v.1.15,2013-03-13 01:45:00,
2013-03-12 21:50:00,54.6,53.8,29.79,SW,229,2.0,4.0,97,0.00,,,0.55,Wunderground v.1.15,2013-03-13 01:50:00,
2013-03-12 21:55:00,54.7,53.9,29.79,SW,226,3.0,9.0,97,0.00,,,0.55,Wunderground v.1.15,2013-03-13 01:55:00,
2013-03-12 22:00:00,54.7,53.9,29.79,SW,225,4.0,6.0,97,0.00,,,0.55,Wunderground v.1.15,2013-03-13 02:00:00,
2013-03-12 22:05:00,54.7,53.9,29.79,SW,225,1.0,6.0,97,0.00,,,0.55,Wunderground v.1.15,2013-03-13 02:05:00,
2013-03-12 22:10:00,54.8,54.0,29.79,SW,225,3.0,4.0,97,0.00,,,0.55,Wunderground v.1.15,2013-03-13 02:10:00,
2013-03-12 22:15:00,54.8,54.0,29.79,SW,225,3.0,7.0,97,0.00,,,0.55,Wunderground v.1.15,2013-03-13 02:15:00,
2013-03-12 22:20:00,54.8,54.0,29.79,SW,225,2.0,4.0,97,0.00,,,0.55,Wunderground v.1.15,2013-03-13 02:20:00,
2013-03-12 22:25:00,54.7,53.9,29.79,SW,225,0.0,5.0,97,0.00,,,0.55,Wunderground v.1.15,2013-03-13 02:25:00,
2013-03-12 22:30:00,54.8,54.0,29.80,SW,225,3.0,5.0,97,0.00,,,0.55,Wunderground v.1.15,2013-03-13 02:30:00,
2013-03-12 22:35:00,54.9,54.1,29.80,SW,225,4.0,5.0,97,0.00,,,0.55,Wunderground v.1.15,2013-03-13 02:35:00,
2013-03-12 22:40:00,55.0,54.2,29.79,SW,225,0.0,3.0,97,0.00,,,0.55,Wunderground v.1.15,2013-03-13 02:40:00,
2013-03-12 22:45:00,55.0,54.2,29.80,SW,225,0.0,5.0,97,0.00,,,0.55,Wunderground v.1.15,2013-03-13 02:45:00,
2013-03-12 22:50:00,55.0,54.2,29.80,SW,224,0.0,3.0,97,0.00,,,0.55,Wunderground v.1.15,2013-03-13 02:50:00,
2013-03-12 22:55:00,54.8,54.0,29.81,SW,224,4.0,5.0,97,0.00,,,0.55,Wunderground v.1.15,2013-03-13 02:55:00,
2013-03-12 23:00:00,54.9,54.3,29.82,WNW,288,8.0,12.0,98,0.00,,,0.55,Wunderground v.1.15,2013-03-13 03:00:00,
2013-03-12 23:05:00,55.6,55.0,29.82,NW,309,4.0,12.0,98,0.00,,,0.55,Wunderground v.1.15,2013-03-13 03:05:00,
2013-03-12 23:10:00,55.5,54.7,29.82,NW,307,5.0,6.0,97,0.00,,,0.55,Wunderground v.1.15,2013-03-13 03:10:00,
2013-03-12 23:15:00,55.2,54.4,29.82,NW,306,3.0,7.0,97,0.00,,,0.55,Wunderground v.1.15,2013-03-13 03:15:00,
2013-03-12 23:20:00,55.1,54.3,29.82,NW,306,3.0,3.0,97,0.00,,,0.55,Wunderground v.1.15,2013-03-13 03:20:00,
2013-03-12 23:25:00,55.0,54.2,29.82,NW,306,1.0,4.0,97,0.00,,,0.55,Wunderground v.1.15,2013-03-13 03:25:00,
2013-03-12 23:30:00,55.0,54.2,29.82,NW,306,0.0,3.0,97,0.00,,,0.55,Wunderground v.1.15,2013-03-13 03:30:00,
2013-03-12 23:35:00,54.8,54.0,29.82,NW,306,0.0,4.0,97,0.00,,,0.55,Wunderground v.1.15,2013-03-13 03:35:00,
2013-03-12 23:40:00,54.4,53.6,29.81,NW,306,3.0,5.0,97,0.00,,,0.55,Wunderground v.1.15,2013-03-13 03:40:00,
2013-03-12 23:45:00,54.0,53.2,29.81,NW,305,0.0,5.0,97,0.00,,,0.55,Wunderground v.1.15,2013-03-13 03:45:00,
2013-03-12 23:50:00,53.9,53.1,29.82,WNW,300,5.0,6.0,97,0.00,,,0.55,Wunderground v.1.15,2013-03-13 03:50:00,
2013-03-12 23:55:00,53.7,52.9,29.82,WNW,285,4.0,7.0,97,0.00,,,0.55,Wunderground v.1.15,2013-03-13 03:55:00,